Aviation Digital Data Service (ADDS)

Output produced by TAFs form (2348 UTC 02 September 2014)
found at http://aviationweather.gov/adds/tafs/
 
KABQ 022325Z 0300/0324 25008KT P6SM FEW090 SCT250 
     FM030200 21006KT P6SM SKC 
     FM031100 14006KT P6SM SKC 
     FM031900 23012KT P6SM FEW090